Time;durP1;ratioP1;P1;durP2;ratioP2;P2;SDS_P1;SDS_P2;PMS_P1;PMS_P2;Temp;Humidity;BMP_temperature;BMP_pressure;BME280_temperature;BME280_humidity;BME280_pressure;Samples;Min_cycle;Max_cycle;Signal;HPM_P1;HPM_P2
2022/07/28 00:00:44;;;;;;;5.18;1.00;;;;;;;;;;4955724;28;20130;-69
2022/07/28 00:03:09;;;;;;;10.68;1.27;;;;;;;;;;4957023;28;20035;-69
2022/07/28 00:05:35;;;;;;;2.57;0.97;;;;;;;;;;4954435;28;20378;-68
2022/07/28 00:08:00;;;;;;;3.05;1.00;;;;;;;;;;4952307;28;20893;-69
2022/07/28 00:10:25;;;;;;;3.17;1.00;;;;;;;;;;4950359;28;20031;-69
2022/07/28 00:12:51;;;;;;;5.78;1.10;;;;;;;;;;4951421;28;20030;-69
2022/07/28 00:15:16;;;;;;;8.47;1.67;;;;;;;;;;4952790;28;20022;-69
2022/07/28 00:17:41;;;;;;;9.38;2.05;;;;;;;;;;4952680;28;20282;-69
2022/07/28 00:20:07;;;;;;;3.17;1.15;;;;;;;;;;4953735;28;20037;-69
2022/07/28 00:22:32;;;;;;;7.40;1.33;;;;;;;;;;4951989;28;20034;-69
2022/07/28 00:24:57;;;;;;;3.17;0.93;;;;;;;;;;4950606;28;21286;-68
2022/07/28 00:27:23;;;;;;;5.82;1.10;;;;;;;;;;4953111;28;20030;-69
2022/07/28 00:29:48;;;;;;;3.67;0.88;;;;;;;;;;4951671;28;20058;-68
2022/07/28 00:32:14;;;;;;;7.30;0.95;;;;;;;;;;4951806;28;20103;-68
2022/07/28 00:34:39;;;;;;;4.63;1.02;;;;;;;;;;4954390;28;20042;-68
2022/07/28 00:37:04;;;;;;;2.27;1.20;;;;;;;;;;4950530;28;20222;-68
2022/07/28 00:39:29;;;;;;;3.97;1.08;;;;;;;;;;4952287;28;20750;-68
2022/07/28 00:41:54;;;;;;;4.87;0.73;;;;;;;;;;4953599;28;20102;-68
2022/07/28 00:44:20;;;;;;;8.43;1.00;;;;;;;;;;4952268;28;20277;-68
2022/07/28 00:46:45;;;;;;;7.03;1.33;;;;;;;;;;4969804;28;20035;-69
2022/07/28 00:49:12;;;;;;;9.88;1.30;;;;;;;;;;4971777;28;20050;-68
2022/07/28 00:51:38;;;;;;;7.78;0.98;;;;;;;;;;4969273;28;20023;-68
2022/07/28 00:54:03;;;;;;;4.85;1.00;;;;;;;;;;4968374;28;20536;-68
2022/07/28 00:56:29;;;;;;;10.38;1.17;;;;;;;;;;4964264;28;20026;-68
2022/07/28 00:58:54;;;;;;;5.45;1.40;;;;;;;;;;4970400;28;20022;-68
2022/07/28 01:01:20;;;;;;;10.43;1.33;;;;;;;;;;4971961;28;20037;-68
2022/07/28 01:03:55;;;;;;;3.75;0.93;;;;;;;;;;4966301;28;20331;-68
2022/07/28 01:06:23;;;;;;;8.70;0.88;;;;;;;;;;4967528;28;20094;-68
2022/07/28 01:08:48;;;;;;;9.57;1.50;;;;;;;;;;4967768;28;20025;-68
2022/07/28 01:11:30;;;;;;;9.43;1.47;;;;;;;;;;4971768;28;20121;-68
2022/07/28 01:14:20;;;;;;;3.90;0.88;;;;;;;;;;4971161;28;20284;-69
2022/07/28 01:16:52;;;;;;;4.17;1.07;;;;;;;;;;4971628;28;20109;-69
2022/07/28 01:19:25;;;;;;;12.05;0.95;;;;;;;;;;4966844;28;20415;-69
2022/07/28 01:21:50;;;;;;;7.25;1.45;;;;;;;;;;4969052;28;20038;-69
2022/07/28 01:24:34;;;;;;;5.82;1.15;;;;;;;;;;4970905;28;20027;-69
2022/07/28 01:27:04;;;;;;;3.63;1.10;;;;;;;;;;4971017;28;20510;-69
2022/07/28 01:29:48;;;;;;;7.03;2.60;;;;;;;;;;4969816;28;20031;-69
2022/07/28 01:32:18;;;;;;;4.32;0.93;;;;;;;;;;4970416;28;20023;-69
2022/07/28 01:34:53;;;;;;;11.30;1.35;;;;;;;;;;4969928;28;20109;-69
2022/07/28 01:37:24;;;;;;;10.23;2.05;;;;;;;;;;4968694;28;20026;-69
2022/07/28 01:39:52;;;;;;;5.53;1.30;;;;;;;;;;4970041;28;20439;-68
2022/07/28 01:42:20;;;;;;;7.15;1.08;;;;;;;;;;4969009;28;20019;-69
2022/07/28 01:44:47;;;;;;;4.60;1.00;;;;;;;;;;4970487;28;20031;-68
2022/07/28 01:47:13;;;;;;;3.63;1.20;;;;;;;;;;4968655;28;20089;-68
2022/07/28 01:49:40;;;;;;;8.35;1.20;;;;;;;;;;4968756;28;20030;-69
2022/07/28 01:52:07;;;;;;;6.90;1.20;;;;;;;;;;4970034;28;20115;-68
2022/07/28 01:54:34;;;;;;;3.03;0.93;;;;;;;;;;4968524;28;20437;-68
2022/07/28 01:56:59;;;;;;;3.20;1.20;;;;;;;;;;4964214;28;20471;-69
2022/07/28 01:59:25;;;;;;;6.30;1.40;;;;;;;;;;4969132;28;20074;-69
2022/07/28 02:01:51;;;;;;;4.28;0.80;;;;;;;;;;4971813;28;20262;-69
2022/07/28 02:04:17;;;;;;;6.10;0.80;;;;;;;;;;4968956;28;20023;-69
2022/07/28 02:06:43;;;;;;;5.30;1.13;;;;;;;;;;4969611;28;20475;-69
2022/07/28 02:09:08;;;;;;;3.00;0.85;;;;;;;;;;4969025;28;20027;-69
2022/07/28 02:11:40;;;;;;;3.70;1.13;;;;;;;;;;4970547;28;20027;-69
2022/07/28 02:14:11;;;;;;;5.75;1.10;;;;;;;;;;4971200;28;20099;-69
2022/07/28 02:16:39;;;;;;;7.30;1.38;;;;;;;;;;4969493;28;20021;-69
2022/07/28 02:19:04;;;;;;;4.78;1.25;;;;;;;;;;4965266;28;20513;-69
2022/07/28 02:21:30;;;;;;;6.93;0.95;;;;;;;;;;4965963;28;20046;-69
2022/07/28 02:23:57;;;;;;;4.80;1.05;;;;;;;;;;4971189;28;20372;-69
2022/07/28 02:26:25;;;;;;;5.25;1.35;;;;;;;;;;4970382;28;20083;-69
2022/07/28 02:28:53;;;;;;;9.15;1.30;;;;;;;;;;4969844;28;20546;-69
2022/07/28 02:31:19;;;;;;;3.00;1.30;;;;;;;;;;4967338;28;20414;-69
2022/07/28 02:33:45;;;;;;;12.20;1.50;;;;;;;;;;4969128;28;20030;-69
2022/07/28 02:36:24;;;;;;;7.65;1.38;;;;;;;;;;4969102;28;20074;-69
2022/07/28 02:38:50;;;;;;;8.23;1.42;;;;;;;;;;4969222;28;20037;-69
2022/07/28 02:41:26;;;;;;;4.18;1.05;;;;;;;;;;4969212;28;20134;-69
2022/07/28 02:43:52;;;;;;;7.03;1.98;;;;;;;;;;4964075;28;20535;-69
2022/07/28 02:46:20;;;;;;;5.45;1.25;;;;;;;;;;4969054;28;20026;-69
2022/07/28 02:48:48;;;;;;;3.00;1.23;;;;;;;;;;4967695;28;20077;-69
2022/07/28 02:51:14;;;;;;;7.50;1.08;;;;;;;;;;4966059;28;20101;-69
2022/07/28 02:53:40;;;;;;;3.60;0.98;;;;;;;;;;4966667;28;20464;-69
2022/07/28 02:56:06;;;;;;;6.95;1.40;;;;;;;;;;4970780;28;20045;-69
2022/07/28 02:58:32;;;;;;;12.27;1.27;;;;;;;;;;4969883;28;20027;-69
2022/07/28 03:00:58;;;;;;;5.35;1.15;;;;;;;;;;4965822;28;20417;-69
2022/07/28 03:03:23;;;;;;;8.50;1.40;;;;;;;;;;4969374;28;20043;-69
2022/07/28 03:05:48;;;;;;;5.35;1.75;;;;;;;;;;4970709;28;20550;-69
2022/07/28 03:08:15;;;;;;;6.68;1.30;;;;;;;;;;4966435;28;20114;-69
2022/07/28 03:10:40;;;;;;;6.80;1.63;;;;;;;;;;4969082;28;20035;-69
2022/07/28 03:13:06;;;;;;;11.05;1.20;;;;;;;;;;4969430;28;20105;-69
2022/07/28 03:15:31;;;;;;;8.00;1.40;;;;;;;;;;4969184;28;20133;-69
2022/07/28 03:17:57;;;;;;;3.15;1.05;;;;;;;;;;4967797;28;20030;-69
2022/07/28 03:20:22;;;;;;;7.95;1.70;;;;;;;;;;4969332;28;20038;-69
2022/07/28 03:22:47;;;;;;;9.13;1.67;;;;;;;;;;4973103;28;20036;-69
2022/07/28 03:25:22;;;;;;;6.03;1.33;;;;;;;;;;4967250;28;20712;-69
2022/07/28 03:27:49;;;;;;;4.38;1.30;;;;;;;;;;4972356;28;20030;-69
2022/07/28 03:30:16;;;;;;;3.67;1.33;;;;;;;;;;4973477;28;20034;-69
2022/07/28 03:32:50;;;;;;;7.03;1.92;;;;;;;;;;4970881;28;20440;-69
2022/07/28 03:35:16;;;;;;;7.53;1.50;;;;;;;;;;4970015;28;20074;-69
2022/07/28 03:37:47;;;;;;;8.45;1.70;;;;;;;;;;4972690;28;20080;-69
2022/07/28 03:40:13;;;;;;;4.53;1.48;;;;;;;;;;4973439;28;20027;-69
2022/07/28 03:42:40;;;;;;;8.27;1.35;;;;;;;;;;4970210;28;20033;-69
2022/07/28 03:45:06;;;;;;;5.43;1.30;;;;;;;;;;4972025;28;20102;-69
2022/07/28 03:47:31;;;;;;;2.85;1.40;;;;;;;;;;4972536;28;20134;-69
2022/07/28 03:49:56;;;;;;;6.07;1.00;;;;;;;;;;4971760;28;20035;-69
2022/07/28 03:52:22;;;;;;;6.45;1.50;;;;;;;;;;4973305;28;20278;-69
2022/07/28 03:54:47;;;;;;;11.32;1.52;;;;;;;;;;4971938;28;20030;-69
2022/07/28 03:57:13;;;;;;;9.03;1.87;;;;;;;;;;4971343;28;20021;-69
2022/07/28 03:59:38;;;;;;;5.15;1.55;;;;;;;;;;4972215;28;20769;-69
2022/07/28 04:02:03;;;;;;;4.50;1.70;;;;;;;;;;4973287;28;20038;-69
2022/07/28 04:04:28;;;;;;;8.35;1.55;;;;;;;;;;4972101;28;20481;-69
2022/07/28 04:06:54;;;;;;;2.75;1.30;;;;;;;;;;4973704;28;20038;-69
2022/07/28 04:09:19;;;;;;;6.95;1.30;;;;;;;;;;4970954;28;20035;-69
2022/07/28 04:11:44;;;;;;;5.13;1.30;;;;;;;;;;4970907;28;20026;-69
2022/07/28 04:14:09;;;;;;;8.63;1.93;;;;;;;;;;4970732;28;20410;-69
2022/07/28 04:16:34;;;;;;;3.50;1.47;;;;;;;;;;4971852;28;20277;-69
2022/07/28 04:19:00;;;;;;;5.40;1.73;;;;;;;;;;4968998;28;20655;-69
2022/07/28 04:21:25;;;;;;;5.22;1.40;;;;;;;;;;4972707;28;20282;-69
2022/07/28 04:23:50;;;;;;;9.93;1.70;;;;;;;;;;4981207;23;20051;-63
2022/07/28 04:26:16;;;;;;;9.23;1.42;;;;;;;;;;4951373;28;20027;-65
2022/07/28 04:28:41;;;;;;;5.90;1.42;;;;;;;;;;4952563;28;20023;-65
2022/07/28 04:31:07;;;;;;;2.42;1.50;;;;;;;;;;4952364;28;20037;-64
2022/07/28 04:33:32;;;;;;;4.63;1.53;;;;;;;;;;4948909;28;20083;-64
2022/07/28 04:35:59;;;;;;;5.20;1.40;;;;;;;;;;4953773;28;20680;-64
2022/07/28 04:38:24;;;;;;;5.40;1.92;;;;;;;;;;4949874;28;20023;-66
2022/07/28 04:40:50;;;;;;;9.77;1.50;;;;;;;;;;4947008;28;20210;-70
2022/07/28 04:43:15;;;;;;;9.38;2.38;;;;;;;;;;4949224;28;20318;-67
2022/07/28 04:45:40;;;;;;;5.45;1.55;;;;;;;;;;4948257;28;20038;-66
2022/07/28 04:48:05;;;;;;;4.73;1.40;;;;;;;;;;4949752;28;20071;-67
2022/07/28 04:50:31;;;;;;;7.47;1.58;;;;;;;;;;4953252;28;20300;-66
2022/07/28 04:52:57;;;;;;;8.57;2.00;;;;;;;;;;4948715;28;20027;-65
2022/07/28 04:55:22;;;;;;;9.38;2.10;;;;;;;;;;4949726;28;20031;-65
2022/07/28 04:57:48;;;;;;;7.00;1.70;;;;;;;;;;4948318;28;20027;-65
2022/07/28 05:00:14;;;;;;;3.97;1.30;;;;;;;;;;4951812;28;20022;-68
2022/07/28 05:02:39;;;;;;;12.88;1.48;;;;;;;;;;4949053;28;20034;-66
2022/07/28 05:05:05;;;;;;;3.47;1.38;;;;;;;;;;4948059;28;20031;-69
2022/07/28 05:07:30;;;;;;;17.90;2.17;;;;;;;;;;4949971;28;20034;-66
2022/07/28 05:09:55;;;;;;;8.17;1.60;;;;;;;;;;4949406;29;20031;-68
2022/07/28 05:12:21;;;;;;;14.00;1.83;;;;;;;;;;4949596;28;20751;-65
2022/07/28 05:14:46;;;;;;;5.10;1.40;;;;;;;;;;4948566;29;20271;-68
2022/07/28 05:17:11;;;;;;;6.25;1.60;;;;;;;;;;4945686;28;20275;-65
2022/07/28 05:19:37;;;;;;;8.80;1.47;;;;;;;;;;4944939;28;20031;-67
2022/07/28 05:22:02;;;;;;;4.90;1.47;;;;;;;;;;4949838;28;20282;-66
2022/07/28 05:24:27;;;;;;;12.07;2.50;;;;;;;;;;4946873;28;20795;-66
2022/07/28 05:26:52;;;;;;;5.68;1.58;;;;;;;;;;4950256;28;20519;-68
2022/07/28 05:29:17;;;;;;;6.30;1.85;;;;;;;;;;4949385;28;20027;-66
2022/07/28 05:31:43;;;;;;;5.43;1.20;;;;;;;;;;4948549;28;20023;-67
2022/07/28 05:34:08;;;;;;;7.90;1.90;;;;;;;;;;4949294;28;20267;-65
2022/07/28 05:36:34;;;;;;;5.30;1.43;;;;;;;;;;4948084;28;20306;-66
2022/07/28 05:38:59;;;;;;;3.67;1.38;;;;;;;;;;4948389;28;20274;-66
2022/07/28 05:41:24;;;;;;;7.05;1.55;;;;;;;;;;4948633;28;20031;-65
2022/07/28 05:43:50;;;;;;;2.33;1.10;;;;;;;;;;4950718;28;20023;-68
2022/07/28 05:46:15;;;;;;;5.83;1.57;;;;;;;;;;4951500;28;20139;-67
2022/07/28 05:48:40;;;;;;;4.77;1.30;;;;;;;;;;4952625;29;20735;-65
2022/07/28 05:51:05;;;;;;;4.50;1.27;;;;;;;;;;4947511;28;20283;-67
2022/07/28 05:53:30;;;;;;;2.63;1.30;;;;;;;;;;4950706;28;20358;-64
2022/07/28 05:55:56;;;;;;;5.18;1.27;;;;;;;;;;4951027;28;20759;-64
2022/07/28 05:58:21;;;;;;;6.35;1.30;;;;;;;;;;4947902;28;20023;-65
2022/07/28 06:00:47;;;;;;;9.88;1.70;;;;;;;;;;4949758;28;20031;-64
2022/07/28 06:03:12;;;;;;;7.60;1.38;;;;;;;;;;4952712;28;20082;-64
2022/07/28 06:05:44;;;;;;;151.57;14.27;;;;;;;;;;5144797;27;20397;-65
2022/07/28 06:08:09;;;;;;;13.65;1.98;;;;;;;;;;5149542;27;20115;-65
2022/07/28 06:13:18;;;;;;;8.50;1.50;;;;;;;;;;5143144;27;20275;-65
2022/07/28 06:15:47;;;;;;;3.38;1.48;;;;;;;;;;5142373;27;20027;-66
2022/07/28 06:18:12;;;;;;;6.18;1.40;;;;;;;;;;5230685;22;20075;-69
2022/07/28 06:20:37;;;;;;;3.47;1.20;;;;;;;;;;5082209;28;20040;-68
2022/07/28 06:23:03;;;;;;;2.97;1.30;;;;;;;;;;5082977;28;20020;-68
2022/07/28 06:25:28;;;;;;;3.15;1.10;;;;;;;;;;5075782;28;20051;-68
2022/07/28 06:27:57;;;;;;;14.30;1.55;;;;;;;;;;5082300;28;20052;-68
2022/07/28 06:30:22;;;;;;;13.02;3.42;;;;;;;;;;5082613;28;20025;-68
2022/07/28 06:32:48;;;;;;;3.75;1.10;;;;;;;;;;5075656;28;20024;-68
2022/07/28 06:35:15;;;;;;;6.35;1.42;;;;;;;;;;5080173;28;20055;-68
2022/07/28 06:37:41;;;;;;;5.57;1.30;;;;;;;;;;5081487;28;20024;-68
2022/07/28 06:40:06;;;;;;;10.68;1.55;;;;;;;;;;5080385;28;20024;-68
2022/07/28 06:42:31;;;;;;;12.77;1.70;;;;;;;;;;5080840;28;20016;-68
2022/07/28 06:44:57;;;;;;;4.47;1.00;;;;;;;;;;5080984;28;20020;-68
2022/07/28 06:47:22;;;;;;;9.10;1.20;;;;;;;;;;5081640;28;20008;-68
2022/07/28 06:49:47;;;;;;;4.13;1.27;;;;;;;;;;5078044;28;20089;-68
2022/07/28 06:52:12;;;;;;;5.40;1.33;;;;;;;;;;5073194;28;20275;-68
2022/07/28 06:54:37;;;;;;;5.45;1.40;;;;;;;;;;5079812;28;20358;-68
2022/07/28 06:57:03;;;;;;;6.80;1.43;;;;;;;;;;5079151;28;20060;-68
2022/07/28 06:59:28;;;;;;;4.13;1.23;;;;;;;;;;5076496;28;20816;-68
2022/07/28 07:01:53;;;;;;;9.27;1.40;;;;;;;;;;5080606;28;20024;-68
2022/07/28 07:04:18;;;;;;;9.88;1.65;;;;;;;;;;5081273;28;20028;-68
2022/07/28 07:06:44;;;;;;;4.17;0.83;;;;;;;;;;5080211;28;20032;-68
2022/07/28 07:09:09;;;;;;;8.05;1.17;;;;;;;;;;5081120;28;20273;-68
2022/07/28 07:11:37;;;;;;;3.03;1.07;;;;;;;;;;5080711;28;20020;-68
2022/07/28 07:14:02;;;;;;;9.02;1.48;;;;;;;;;;5080381;28;20024;-68
2022/07/28 07:16:27;;;;;;;5.70;1.00;;;;;;;;;;5073278;28;20031;-68
2022/07/28 07:18:53;;;;;;;7.07;1.43;;;;;;;;;;5063246;28;20036;-68
2022/07/28 07:21:18;;;;;;;13.50;1.77;;;;;;;;;;5059834;28;20024;-68
2022/07/28 07:23:43;;;;;;;3.22;1.05;;;;;;;;;;5067803;28;20021;-68
2022/07/28 07:26:09;;;;;;;6.55;1.20;;;;;;;;;;5066475;28;21403;-68
2022/07/28 07:28:34;;;;;;;10.13;1.50;;;;;;;;;;5062251;28;20040;-68
2022/07/28 07:30:59;;;;;;;3.92;1.10;;;;;;;;;;5064763;28;20021;-68
2022/07/28 07:33:24;;;;;;;5.05;1.20;;;;;;;;;;5067659;28;20063;-68
2022/07/28 07:35:50;;;;;;;7.33;1.10;;;;;;;;;;5068250;28;20017;-68
2022/07/28 07:38:15;;;;;;;7.23;1.17;;;;;;;;;;5071901;28;20267;-68
2022/07/28 07:40:40;;;;;;;8.48;1.30;;;;;;;;;;5064083;28;20275;-69
2022/07/28 07:43:05;;;;;;;5.25;1.00;;;;;;;;;;5063656;28;20021;-68
2022/07/28 07:45:33;;;;;;;7.25;1.30;;;;;;;;;;5069256;28;20013;-68
2022/07/28 07:47:58;;;;;;;6.80;1.33;;;;;;;;;;5066735;28;20028;-69
2022/07/28 07:50:23;;;;;;;6.17;1.13;;;;;;;;;;5067296;28;20019;-68
2022/07/28 07:52:48;;;;;;;6.63;1.13;;;;;;;;;;5068220;28;20031;-69
2022/07/28 07:55:14;;;;;;;5.60;1.10;;;;;;;;;;5063514;28;20044;-69
2022/07/28 07:57:39;;;;;;;5.60;1.38;;;;;;;;;;5067698;28;20052;-69
2022/07/28 08:00:05;;;;;;;11.37;1.40;;;;;;;;;;5068002;28;20431;-69
2022/07/28 08:02:30;;;;;;;7.13;1.98;;;;;;;;;;5062460;28;20097;-69
2022/07/28 08:04:55;;;;;;;7.40;1.33;;;;;;;;;;5067895;28;20390;-69
2022/07/28 08:07:20;;;;;;;9.87;1.10;;;;;;;;;;5062985;28;20062;-69
2022/07/28 08:09:45;;;;;;;3.50;1.20;;;;;;;;;;5062785;28;20322;-69
2022/07/28 08:12:11;;;;;;;1.60;0.80;;;;;;;;;;5070858;28;20356;-69
2022/07/28 08:14:36;;;;;;;9.83;1.47;;;;;;;;;;5063563;28;20021;-69
2022/07/28 08:17:01;;;;;;;3.43;1.60;;;;;;;;;;5062679;28;20044;-69
2022/07/28 08:19:26;;;;;;;5.50;1.60;;;;;;;;;;5071672;28;20078;-69
2022/07/28 08:21:51;;;;;;;3.67;1.10;;;;;;;;;;5059773;28;20059;-69
2022/07/28 08:24:17;;;;;;;12.25;1.33;;;;;;;;;;5080394;28;20104;-68
2022/07/28 08:26:42;;;;;;;7.60;1.23;;;;;;;;;;5063261;28;20381;-68
2022/07/28 08:29:08;;;;;;;5.80;1.10;;;;;;;;;;5061066;28;20008;-68
2022/07/28 08:31:33;;;;;;;3.05;1.10;;;;;;;;;;5063509;28;20025;-69
2022/07/28 08:33:59;;;;;;;6.47;1.80;;;;;;;;;;5069550;28;20032;-68
2022/07/28 08:36:24;;;;;;;3.45;1.00;;;;;;;;;;5066583;28;20299;-68
2022/07/28 08:38:49;;;;;;;9.53;1.70;;;;;;;;;;5064730;28;20059;-68
2022/07/28 08:41:28;;;;;;;6.37;0.97;;;;;;;;;;5062384;28;20346;-68
2022/07/28 08:43:54;;;;;;;6.15;1.45;;;;;;;;;;5068942;28;20291;-68
2022/07/28 08:46:20;;;;;;;5.40;1.15;;;;;;;;;;5063978;28;20117;-68
2022/07/28 08:48:46;;;;;;;7.03;1.00;;;;;;;;;;5066745;28;20040;-68
2022/07/28 08:51:11;;;;;;;3.10;0.90;;;;;;;;;;5065949;28;20480;-67
2022/07/28 08:53:38;;;;;;;7.85;1.25;;;;;;;;;;5061062;28;20020;-66
2022/07/28 08:56:04;;;;;;;6.93;1.25;;;;;;;;;;5067526;28;20021;-66
2022/07/28 08:58:33;;;;;;;8.25;0.80;;;;;;;;;;5063645;28;20021;-66
2022/07/28 09:00:58;;;;;;;5.55;1.10;;;;;;;;;;5058687;28;20079;-68
2022/07/28 09:03:25;;;;;;;4.63;1.15;;;;;;;;;;5067009;28;20032;-70
2022/07/28 09:05:50;;;;;;;7.03;0.90;;;;;;;;;;5062638;28;20494;-69
2022/07/28 09:08:16;;;;;;;4.10;0.98;;;;;;;;;;5065581;28;20013;-68
2022/07/28 09:10:41;;;;;;;11.73;1.13;;;;;;;;;;5059367;28;20039;-68
2022/07/28 09:13:06;;;;;;;7.37;1.73;;;;;;;;;;5063798;28;20024;-68
2022/07/28 09:15:32;;;;;;;2.97;0.90;;;;;;;;;;5064051;28;20024;-68
2022/07/28 09:17:57;;;;;;;2.63;0.80;;;;;;;;;;5068012;28;20025;-68
2022/07/28 09:20:22;;;;;;;4.27;1.00;;;;;;;;;;5067276;28;20206;-68
2022/07/28 09:22:58;;;;;;;3.13;1.20;;;;;;;;;;5064220;28;20278;-68
2022/07/28 09:25:24;;;;;;;7.68;1.00;;;;;;;;;;5056052;28;20074;-68
2022/07/28 09:27:50;;;;;;;5.90;0.82;;;;;;;;;;5062765;28;20059;-68
2022/07/28 09:30:18;;;;;;;4.45;1.25;;;;;;;;;;5058389;28;20016;-68
2022/07/28 09:32:43;;;;;;;2.20;0.80;;;;;;;;;;5062115;28;20469;-68
2022/07/28 09:35:18;;;;;;;8.60;0.90;;;;;;;;;;5064677;28;20040;-68
2022/07/28 09:37:44;;;;;;;5.13;0.85;;;;;;;;;;5057988;28;20275;-68
2022/07/28 09:40:10;;;;;;;1.50;0.60;;;;;;;;;;5062484;28;20043;-68
2022/07/28 09:42:45;;;;;;;3.75;1.13;;;;;;;;;;5057259;28;20028;-68
2022/07/28 09:45:11;;;;;;;1.42;0.70;;;;;;;;;;5060725;28;20012;-68
2022/07/28 09:47:39;;;;;;;8.35;1.10;;;;;;;;;;5061593;28;20550;-68
2022/07/28 09:50:04;;;;;;;5.93;0.88;;;;;;;;;;5065434;28;20013;-68
2022/07/28 09:52:30;;;;;;;2.97;0.85;;;;;;;;;;5064025;28;20043;-68
2022/07/28 09:55:05;;;;;;;4.72;1.00;;;;;;;;;;5062709;28;20029;-68
2022/07/28 09:57:31;;;;;;;4.75;1.05;;;;;;;;;;5064763;28;20103;-68
2022/07/28 09:59:56;;;;;;;4.13;0.70;;;;;;;;;;5059176;28;20039;-68
2022/07/28 10:02:25;;;;;;;3.00;0.80;;;;;;;;;;5060823;28;20061;-68
2022/07/28 10:04:51;;;;;;;5.13;1.13;;;;;;;;;;5068438;28;20094;-68
2022/07/28 10:07:16;;;;;;;7.30;0.93;;;;;;;;;;5064455;28;20024;-69
2022/07/28 10:09:42;;;;;;;5.50;1.08;;;;;;;;;;5065319;28;20486;-68
2022/07/28 10:12:14;;;;;;;6.53;1.00;;;;;;;;;;5065907;28;20012;-68
2022/07/28 10:14:39;;;;;;;9.50;1.20;;;;;;;;;;5064078;28;20050;-68
2022/07/28 10:17:04;;;;;;;4.93;1.10;;;;;;;;;;5056913;28;20491;-69
2022/07/28 10:19:29;;;;;;;8.68;1.15;;;;;;;;;;5060909;28;20255;-68
2022/07/28 10:21:56;;;;;;;8.93;1.42;;;;;;;;;;5059097;28;20112;-68
2022/07/28 10:24:21;;;;;;;3.72;1.20;;;;;;;;;;5061892;28;20067;-69
2022/07/28 10:26:47;;;;;;;2.28;0.85;;;;;;;;;;5060223;28;20021;-69
2022/07/28 10:29:16;;;;;;;7.25;0.98;;;;;;;;;;5065253;28;20090;-69
2022/07/28 10:31:47;;;;;;;3.30;1.00;;;;;;;;;;5064195;28;20421;-69
2022/07/28 10:34:15;;;;;;;6.07;0.98;;;;;;;;;;5057002;28;20021;-69
2022/07/28 10:36:40;;;;;;;5.93;1.02;;;;;;;;;;5064061;28;20025;-69
2022/07/28 10:39:11;;;;;;;3.55;0.90;;;;;;;;;;5062565;28;20043;-70
2022/07/28 10:41:40;;;;;;;11.80;1.20;;;;;;;;;;5062580;28;20021;-69
2022/07/28 10:44:06;;;;;;;9.33;1.47;;;;;;;;;;5056967;28;20029;-69
2022/07/28 10:46:31;;;;;;;6.18;0.88;;;;;;;;;;5064850;28;20949;-69
2022/07/28 10:48:57;;;;;;;5.80;0.63;;;;;;;;;;5059972;28;20392;-69
2022/07/28 10:51:23;;;;;;;11.70;1.02;;;;;;;;;;5069746;28;20036;-68
2022/07/28 10:53:54;;;;;;;3.33;1.00;;;;;;;;;;5070377;28;20116;-68
2022/07/28 10:56:32;;;;;;;7.93;1.00;;;;;;;;;;5059718;28;20024;-69
2022/07/28 10:59:09;;;;;;;3.90;0.93;;;;;;;;;;5065132;28;20415;-68
2022/07/28 11:01:36;;;;;;;3.30;1.05;;;;;;;;;;5070035;28;20028;-69
2022/07/28 11:04:01;;;;;;;5.95;0.88;;;;;;;;;;5069683;28;20481;-69
2022/07/28 11:06:27;;;;;;;2.20;0.80;;;;;;;;;;5071616;28;20027;-68
2022/07/28 11:08:53;;;;;;;4.97;0.60;;;;;;;;;;5070303;28;20023;-69
2022/07/28 11:11:37;;;;;;;2.50;0.77;;;;;;;;;;5071167;28;20052;-69
2022/07/28 11:14:21;;;;;;;3.08;0.70;;;;;;;;;;5066920;28;20111;-68
2022/07/28 11:16:46;;;;;;;4.50;0.85;;;;;;;;;;5062862;28;20024;-68
2022/07/28 11:19:13;;;;;;;3.40;0.80;;;;;;;;;;5066446;28;20425;-68
2022/07/28 11:21:58;;;;;;;4.90;0.90;;;;;;;;;;5065530;28;20588;-68
2022/07/28 11:24:23;;;;;;;2.53;0.70;;;;;;;;;;5056759;28;20025;-68
2022/07/28 11:26:50;;;;;;;3.00;1.10;;;;;;;;;;5067342;28;20033;-68
2022/07/28 11:29:15;;;;;;;3.13;0.60;;;;;;;;;;5060243;28;20009;-68
2022/07/28 11:31:43;;;;;;;5.78;1.10;;;;;;;;;;5071290;28;20039;-68
2022/07/28 11:34:09;;;;;;;4.65;1.08;;;;;;;;;;5062352;28;20078;-68
2022/07/28 11:36:53;;;;;;;4.32;0.93;;;;;;;;;;5068062;28;20036;-68
2022/07/28 11:39:21;;;;;;;3.67;1.02;;;;;;;;;;5064977;28;20020;-69
2022/07/28 11:41:47;;;;;;;2.90;0.95;;;;;;;;;;5064349;28;20017;-68
2022/07/28 11:44:28;;;;;;;1.50;0.60;;;;;;;;;;5065491;28;20028;-69
2022/07/28 11:47:12;;;;;;;4.15;0.75;;;;;;;;;;5066009;28;20319;-68
2022/07/28 11:49:37;;;;;;;3.88;1.25;;;;;;;;;;5066643;28;20021;-69
2022/07/28 11:52:13;;;;;;;2.23;0.80;;;;;;;;;;5062690;28;20074;-68
2022/07/28 11:54:39;;;;;;;2.90;1.00;;;;;;;;;;5065269;28;20274;-68
2022/07/28 11:57:08;;;;;;;3.92;0.90;;;;;;;;;;5055892;28;20017;-68
2022/07/28 11:59:47;;;;;;;4.30;0.90;;;;;;;;;;5063731;28;20028;-68
2022/07/28 12:02:26;;;;;;;3.72;0.77;;;;;;;;;;5062794;28;20028;-69
2022/07/28 12:04:55;;;;;;;4.25;1.10;;;;;;;;;;5060441;28;20043;-69
2022/07/28 12:07:26;;;;;;;1.85;1.20;;;;;;;;;;5068133;28;20017;-69
2022/07/28 12:09:51;;;;;;;2.38;0.80;;;;;;;;;;5062919;28;20029;-69
2022/07/28 12:12:17;;;;;;;2.63;0.80;;;;;;;;;;5059909;28;20028;-68
2022/07/28 12:14:43;;;;;;;3.85;1.05;;;;;;;;;;5061473;28;20021;-68
2022/07/28 12:17:09;;;;;;;7.97;0.85;;;;;;;;;;5067719;28;20020;-69
2022/07/28 12:19:34;;;;;;;2.97;0.85;;;;;;;;;;5058506;28;20054;-69
2022/07/28 12:21:59;;;;;;;3.20;1.00;;;;;;;;;;5063588;28;20391;-69
2022/07/28 12:24:27;;;;;;;1.63;1.02;;;;;;;;;;5068063;28;20027;-69
2022/07/28 12:26:52;;;;;;;5.07;1.17;;;;;;;;;;5065606;28;20119;-69
2022/07/28 12:29:18;;;;;;;4.53;0.98;;;;;;;;;;5059068;28;20131;-69
2022/07/28 12:31:54;;;;;;;2.80;0.82;;;;;;;;;;5063445;28;20016;-69
2022/07/28 12:34:20;;;;;;;2.80;0.98;;;;;;;;;;5063816;28;20088;-69
2022/07/28 12:36:45;;;;;;;7.47;1.10;;;;;;;;;;5062010;28;20508;-69
2022/07/28 12:39:10;;;;;;;3.90;1.02;;;;;;;;;;5066737;28;20038;-69
2022/07/28 12:41:37;;;;;;;2.67;0.93;;;;;;;;;;5065647;28;20033;-69
2022/07/28 12:44:03;;;;;;;5.40;1.20;;;;;;;;;;5064716;28;20365;-69
2022/07/28 12:46:29;;;;;;;2.40;0.73;;;;;;;;;;5065447;28;20028;-69
2022/07/28 12:48:55;;;;;;;7.78;0.88;;;;;;;;;;5065134;28;20151;-68
2022/07/28 12:51:40;;;;;;;2.55;0.70;;;;;;;;;;5062719;28;20096;-68
2022/07/28 12:54:09;;;;;;;7.75;1.00;;;;;;;;;;5065317;28;20021;-68
2022/07/28 12:56:48;;;;;;;1.45;0.63;;;;;;;;;;5062531;28;20465;-68
2022/07/28 12:59:13;;;;;;;1.03;0.60;;;;;;;;;;5066850;28;20025;-68
2022/07/28 13:01:45;;;;;;;2.90;1.00;;;;;;;;;;5066798;28;20037;-68
2022/07/28 13:04:10;;;;;;;6.03;1.30;;;;;;;;;;5066753;28;20099;-68
2022/07/28 13:06:36;;;;;;;2.53;0.60;;;;;;;;;;5068455;28;20533;-69
2022/07/28 13:09:01;;;;;;;9.73;0.90;;;;;;;;;;5059211;28;20346;-69
2022/07/28 13:11:30;;;;;;;10.07;0.97;;;;;;;;;;5067405;28;20441;-69
2022/07/28 13:13:56;;;;;;;2.63;0.68;;;;;;;;;;5066359;28;20270;-68
2022/07/28 13:16:22;;;;;;;7.63;1.08;;;;;;;;;;5062220;28;20021;-69
2022/07/28 13:18:52;;;;;;;4.30;1.00;;;;;;;;;;5066420;28;20031;-68
2022/07/28 13:21:36;;;;;;;7.05;1.83;;;;;;;;;;5066048;28;20074;-69
2022/07/28 13:24:02;;;;;;;5.22;0.90;;;;;;;;;;5060252;28;20548;-69
2022/07/28 13:26:27;;;;;;;2.08;0.80;;;;;;;;;;5066644;28;20104;-69
2022/07/28 13:29:02;;;;;;;1.97;0.73;;;;;;;;;;5063155;28;20051;-68
2022/07/28 13:31:27;;;;;;;4.53;1.10;;;;;;;;;;5065858;28;20041;-69
2022/07/28 13:33:52;;;;;;;6.93;1.07;;;;;;;;;;5066481;28;20024;-68
2022/07/28 13:36:17;;;;;;;8.97;1.40;;;;;;;;;;5064682;28;20604;-69
2022/07/28 13:38:43;;;;;;;5.65;0.93;;;;;;;;;;5064413;28;20279;-68
2022/07/28 13:41:08;;;;;;;5.37;0.90;;;;;;;;;;5064567;28;20021;-69
2022/07/28 13:43:33;;;;;;;4.73;0.90;;;;;;;;;;5066678;28;20290;-69
2022/07/28 13:45:58;;;;;;;3.33;1.13;;;;;;;;;;5065226;28;20285;-69
2022/07/28 13:48:23;;;;;;;2.60;1.00;;;;;;;;;;5068358;28;20020;-68
2022/07/28 13:50:49;;;;;;;6.50;1.10;;;;;;;;;;5059459;28;20263;-69
2022/07/28 13:53:14;;;;;;;5.68;1.00;;;;;;;;;;5065205;28;20115;-69
2022/07/28 13:55:39;;;;;;;4.60;1.20;;;;;;;;;;5059523;28;20098;-69
2022/07/28 13:58:04;;;;;;;6.95;0.90;;;;;;;;;;5059558;28;20255;-69
2022/07/28 14:00:30;;;;;;;2.10;0.70;;;;;;;;;;5065153;28;20020;-69
2022/07/28 14:02:55;;;;;;;3.42;0.98;;;;;;;;;;5064206;28;20495;-68
2022/07/28 14:05:20;;;;;;;4.47;1.10;;;;;;;;;;5060613;28;20021;-69
2022/07/28 14:07:47;;;;;;;2.92;1.00;;;;;;;;;;5066949;28;20051;-69
2022/07/28 14:10:13;;;;;;;3.30;0.95;;;;;;;;;;5064031;28;20020;-69
2022/07/28 14:12:38;;;;;;;2.78;0.90;;;;;;;;;;5065302;28;20016;-69
2022/07/28 14:15:04;;;;;;;1.70;0.82;;;;;;;;;;5061909;28;20020;-69
2022/07/28 14:17:30;;;;;;;1.85;0.73;;;;;;;;;;5062345;28;20029;-69
2022/07/28 14:19:55;;;;;;;2.20;0.75;;;;;;;;;;5062653;28;20029;-69
2022/07/28 14:22:20;;;;;;;3.93;1.20;;;;;;;;;;5067300;28;20027;-68
2022/07/28 14:24:45;;;;;;;5.65;0.90;;;;;;;;;;5063958;28;20103;-69
2022/07/28 14:27:11;;;;;;;2.53;0.95;;;;;;;;;;5066424;28;20469;-69
2022/07/28 14:29:36;;;;;;;1.17;0.73;;;;;;;;;;5064573;28;20070;-69
2022/07/28 14:32:01;;;;;;;4.35;1.02;;;;;;;;;;5072657;28;20020;-70
2022/07/28 14:34:27;;;;;;;6.53;1.23;;;;;;;;;;5068329;28;20103;-69
2022/07/28 14:36:52;;;;;;;6.13;1.10;;;;;;;;;;5068372;28;20340;-69
2022/07/28 14:39:17;;;;;;;4.87;1.07;;;;;;;;;;5068531;28;20016;-69
2022/07/28 14:41:43;;;;;;;5.22;0.98;;;;;;;;;;5066212;28;20393;-69
2022/07/28 14:44:08;;;;;;;2.25;0.90;;;;;;;;;;5066440;28;20024;-69